Time;durP1;ratioP1;P1;durP2;ratioP2;P2;SDS_P1;SDS_P2;PMS_P1;PMS_P2;Temp;Humidity;BMP_temperature;BMP_pressure;BME280_temperature;BME280_humidity;BME280_pressure;Samples;Min_cycle;Max_cycle;Signal;HPM_P1;HPM_P2
2021/09/11 00:01:00;;;;;;;;;5.75;3.75;;;;;;;;5006245;28;45385;-80
2021/09/11 00:03:25;;;;;;;;;3.67;3.67;;;;;;;;5008394;28;46090;-81
2021/09/11 00:05:51;;;;;;;;;7.00;4.00;;;;;;;;4998820;28;45462;-80
2021/09/11 00:08:16;;;;;;;;;4.67;4.00;;;;;;;;5005307;28;46117;-81
2021/09/11 00:10:41;;;;;;;;;4.00;3.00;;;;;;;;5011292;28;45341;-80
2021/09/11 00:13:07;;;;;;;;;3.75;3.25;;;;;;;;5007000;28;45833;-81
2021/09/11 00:15:32;;;;;;;;;4.00;4.00;;;;;;;;4998393;28;45453;-80
2021/09/11 00:18:01;;;;;;;;;5.00;3.25;;;;;;;;5012046;28;45371;-80
2021/09/11 00:20:27;;;;;;;;;5.00;5.00;;;;;;;;5012557;28;45560;-80
2021/09/11 00:22:52;;;;;;;;;4.00;3.75;;;;;;;;4997432;28;45576;-80
2021/09/11 00:25:17;;;;;;;;;4.00;4.00;;;;;;;;5011298;28;45612;-80
2021/09/11 00:27:42;;;;;;;;;6.33;3.00;;;;;;;;5010388;28;45343;-80
2021/09/11 00:30:08;;;;;;;;;4.00;4.00;;;;;;;;5004523;28;45519;-81
2021/09/11 00:32:34;;;;;;;;;4.50;3.50;;;;;;;;5007966;28;45564;-81
2021/09/11 00:35:00;;;;;;;;;5.50;3.75;;;;;;;;5011981;28;45731;-80
2021/09/11 00:37:25;;;;;;;;;3.00;3.00;;;;;;;;5013992;28;45646;-80
2021/09/11 00:39:50;;;;;;;;;4.33;3.00;;;;;;;;5004348;28;45695;-81
2021/09/11 00:42:15;;;;;;;;;5.33;4.00;;;;;;;;5016312;28;45695;-80
2021/09/11 00:44:40;;;;;;;;;4.00;4.00;;;;;;;;5009589;28;45551;-80
2021/09/11 00:47:06;;;;;;;;;3.00;3.00;;;;;;;;5012942;28;45536;-79
2021/09/11 00:49:31;;;;;;;;;4.33;4.33;;;;;;;;5013949;28;45550;-80
2021/09/11 00:51:56;;;;;;;;;4.00;4.00;;;;;;;;5002773;28;46088;-80
2021/09/11 00:54:21;;;;;;;;;4.00;4.00;;;;;;;;5009119;28;45693;-81
2021/09/11 00:56:47;;;;;;;;;5.00;4.00;;;;;;;;5015854;28;45343;-80
2021/09/11 00:59:12;;;;;;;;;6.00;4.00;;;;;;;;5015516;28;45406;-80
2021/09/11 01:01:37;;;;;;;;;5.00;4.00;;;;;;;;5014812;28;45489;-80
2021/09/11 01:04:02;;;;;;;;;4.67;3.67;;;;;;;;5014548;28;45301;-80
2021/09/11 01:06:29;;;;;;;;;7.25;4.25;;;;;;;;5006706;28;45568;-80
2021/09/11 01:08:54;;;;;;;;;7.25;5.75;;;;;;;;5011968;28;45327;-79
2021/09/11 01:11:19;;;;;;;;;3.33;2.33;;;;;;;;5015497;28;46844;-80
2021/09/11 01:13:45;;;;;;;;;3.25;3.25;;;;;;;;5011783;28;45376;-81
2021/09/11 01:16:10;;;;;;;;;4.00;4.00;;;;;;;;5011275;28;45552;-79
2021/09/11 01:18:35;;;;;;;;;8.00;5.00;;;;;;;;5018553;28;45465;-81
2021/09/11 01:21:01;;;;;;;;;5.00;5.00;;;;;;;;5010177;28;45486;-82
2021/09/11 01:23:26;;;;;;;;;3.67;3.67;;;;;;;;5006067;28;45508;-80
2021/09/11 01:25:51;;;;;;;;;4.00;3.00;;;;;;;;5002201;28;45583;-82
2021/09/11 01:28:17;;;;;;;;;6.75;4.25;;;;;;;;5014859;28;45438;-81
2021/09/11 01:30:42;;;;;;;;;5.00;5.00;;;;;;;;5006471;28;45953;-82
2021/09/11 01:33:08;;;;;;;;;3.00;3.00;;;;;;;;5011590;28;45465;-81
2021/09/11 01:35:33;;;;;;;;;6.00;3.00;;;;;;;;5012541;28;45756;-81
2021/09/11 01:37:58;;;;;;;;;4.00;3.33;;;;;;;;5014803;28;45445;-82
2021/09/11 01:40:23;;;;;;;;;7.67;5.00;;;;;;;;5014439;28;45568;-79
2021/09/11 01:42:49;;;;;;;;;3.75;3.25;;;;;;;;5009289;28;45578;-81
2021/09/11 01:45:17;;;;;;;;;3.00;3.00;;;;;;;;5010374;28;45726;-81
2021/09/11 01:47:42;;;;;;;;;3.50;3.50;;;;;;;;5012101;28;45657;-81
2021/09/11 01:50:08;;;;;;;;;3.00;3.00;;;;;;;;5011688;28;45347;-81
2021/09/11 01:52:34;;;;;;;;;6.00;4.00;;;;;;;;5011069;28;45433;-81
2021/09/11 01:55:00;;;;;;;;;4.00;4.00;;;;;;;;5009676;28;45521;-82
2021/09/11 01:57:25;;;;;;;;;3.00;3.00;;;;;;;;5005155;28;45509;-81
2021/09/11 01:59:50;;;;;;;;;3.00;3.00;;;;;;;;5012374;28;45971;-81
2021/09/11 02:02:15;;;;;;;;;3.00;3.00;;;;;;;;5015052;28;45635;-81
2021/09/11 02:04:41;;;;;;;;;4.50;4.00;;;;;;;;5022367;28;45360;-81
2021/09/11 02:07:06;;;;;;;;;3.00;3.00;;;;;;;;5009123;28;45593;-81
2021/09/11 02:09:33;;;;;;;;;2.50;2.50;;;;;;;;5013131;28;45585;-81
2021/09/11 02:11:58;;;;;;;;;3.25;3.25;;;;;;;;5008515;28;45801;-81
2021/09/11 02:14:24;;;;;;;;;3.25;3.25;;;;;;;;5009886;28;45302;-81
2021/09/11 02:16:49;;;;;;;;;3.75;2.75;;;;;;;;5013746;28;45431;-81
2021/09/11 02:19:15;;;;;;;;;4.75;2.50;;;;;;;;5007902;28;47148;-81
2021/09/11 02:21:40;;;;;;;;;3.25;3.25;;;;;;;;5011994;28;45351;-81
2021/09/11 02:24:05;;;;;;;;;4.00;4.00;;;;;;;;5016799;28;45934;-81
2021/09/11 02:26:31;;;;;;;;;3.00;3.00;;;;;;;;5014536;28;45415;-81
2021/09/11 02:28:56;;;;;;;;;2.00;2.00;;;;;;;;5012861;28;46121;-81
2021/09/11 02:31:21;;;;;;;;;5.67;3.67;;;;;;;;5013814;28;45576;-81
2021/09/11 02:33:50;;;;;;;;;5.00;2.75;;;;;;;;5009749;28;45726;-81
2021/09/11 02:36:15;;;;;;;;;5.00;3.50;;;;;;;;5009370;28;45441;-81
2021/09/11 02:38:41;;;;;;;;;2.25;2.25;;;;;;;;5005799;28;45680;-81
2021/09/11 02:41:06;;;;;;;;;2.33;2.33;;;;;;;;5012570;28;45879;-81
2021/09/11 02:43:31;;;;;;;;;4.33;3.67;;;;;;;;5014511;28;45399;-80
2021/09/11 02:45:56;;;;;;;;;2.67;2.67;;;;;;;;5014568;28;45472;-81
2021/09/11 02:48:22;;;;;;;;;4.25;3.00;;;;;;;;5011110;28;46217;-82
2021/09/11 02:50:47;;;;;;;;;3.25;3.00;;;;;;;;5008158;28;45453;-81
2021/09/11 02:53:13;;;;;;;;;5.50;3.00;;;;;;;;4998902;28;45355;-81
2021/09/11 02:55:38;;;;;;;;;3.67;3.00;;;;;;;;5003550;28;45435;-81
2021/09/11 02:58:03;;;;;;;;;3.00;3.00;;;;;;;;5014137;28;46258;-81
2021/09/11 03:00:28;;;;;;;;;3.00;3.00;;;;;;;;5010861;28;45450;-81
2021/09/11 03:02:53;;;;;;;;;4.00;4.00;;;;;;;;5003615;28;45418;-80
2021/09/11 03:05:19;;;;;;;;;4.00;3.00;;;;;;;;5013769;28;45374;-81
2021/09/11 03:07:44;;;;;;;;;5.00;4.00;;;;;;;;5013529;28;45492;-81
2021/09/11 03:10:09;;;;;;;;;4.00;4.00;;;;;;;;4996869;28;45718;-80
2021/09/11 03:12:34;;;;;;;;;4.00;4.00;;;;;;;;5003387;28;45326;-81
2021/09/11 03:15:00;;;;;;;;;5.00;5.00;;;;;;;;5013408;28;45211;-81
2021/09/11 03:17:25;;;;;;;;;5.33;4.00;;;;;;;;5011077;28;47556;-80
2021/09/11 03:19:50;;;;;;;;;3.67;3.67;;;;;;;;5011066;28;45370;-80
2021/09/11 03:22:15;;;;;;;;;7.25;4.00;;;;;;;;5008847;28;45488;-81
2021/09/11 03:24:41;;;;;;;;;4.25;3.00;;;;;;;;5009489;28;45270;-81
2021/09/11 03:27:06;;;;;;;;;3.00;3.00;;;;;;;;5013502;28;45493;-81
2021/09/11 03:29:31;;;;;;;;;3.00;3.00;;;;;;;;5010680;28;45523;-80
2021/09/11 03:31:56;;;;;;;;;3.00;3.00;;;;;;;;5020172;28;45356;-81
2021/09/11 03:34:21;;;;;;;;;4.67;3.00;;;;;;;;5017265;28;46043;-80
2021/09/11 03:36:47;;;;;;;;;2.00;2.00;;;;;;;;5006761;28;46216;-81
2021/09/11 03:39:12;;;;;;;;;2.00;2.00;;;;;;;;5003203;28;45407;-81
2021/09/11 03:41:37;;;;;;;;;2.33;2.33;;;;;;;;4997546;28;45478;-81
2021/09/11 03:44:02;;;;;;;;;4.00;4.00;;;;;;;;5009713;28;45518;-81
2021/09/11 03:46:28;;;;;;;;;2.50;2.00;;;;;;;;5016185;28;47001;-81
2021/09/11 03:48:53;;;;;;;;;4.00;3.00;;;;;;;;5011051;28;45360;-80
2021/09/11 03:51:18;;;;;;;;;4.00;2.00;;;;;;;;5010887;28;45398;-81
2021/09/11 03:53:43;;;;;;;;;3.00;3.00;;;;;;;;5012528;28;45373;-81
2021/09/11 03:56:08;;;;;;;;;3.67;2.00;;;;;;;;4997743;28;45509;-79
2021/09/11 03:58:34;;;;;;;;;2.67;2.67;;;;;;;;5016655;28;45502;-81
2021/09/11 04:01:01;;;;;;;;;3.00;2.00;;;;;;;;5004541;28;45440;-81
2021/09/11 04:03:26;;;;;;;;;3.00;3.00;;;;;;;;5010474;28;45451;-80
2021/09/11 04:05:51;;;;;;;;;4.00;3.00;;;;;;;;5002035;28;46176;-80
2021/09/11 04:08:17;;;;;;;;;3.00;3.00;;;;;;;;5009525;28;46642;-81
2021/09/11 04:10:42;;;;;;;;;2.00;2.00;;;;;;;;5010265;28;45537;-81
2021/09/11 04:13:07;;;;;;;;;2.33;2.33;;;;;;;;5002177;28;45530;-80
2021/09/11 04:15:32;;;;;;;;;2.67;2.33;;;;;;;;5012799;28;46280;-81
2021/09/11 04:17:57;;;;;;;;;3.00;3.00;;;;;;;;5009531;28;45953;-81
2021/09/11 04:20:23;;;;;;;;;3.33;2.00;;;;;;;;5006835;28;45675;-81
2021/09/11 04:22:48;;;;;;;;;2.00;2.00;;;;;;;;5007134;28;45630;-81
2021/09/11 04:25:13;;;;;;;;;3.00;2.00;;;;;;;;5013171;28;46330;-81
2021/09/11 04:27:38;;;;;;;;;2.67;2.00;;;;;;;;5002381;28;45929;-80
2021/09/11 04:30:05;;;;;;;;;4.50;3.00;;;;;;;;5008595;28;45457;-81
2021/09/11 04:32:30;;;;;;;;;4.00;2.75;;;;;;;;5010856;28;45617;-81
2021/09/11 04:34:55;;;;;;;;;2.67;1.67;;;;;;;;5013283;28;45497;-80
2021/09/11 04:37:20;;;;;;;;;4.00;2.33;;;;;;;;5011273;28;45420;-81
2021/09/11 04:39:45;;;;;;;;;3.67;3.67;;;;;;;;5011932;28;45403;-80
2021/09/11 04:42:11;;;;;;;;;3.00;3.00;;;;;;;;5008509;28;45800;-80
2021/09/11 04:44:36;;;;;;;;;3.00;3.00;;;;;;;;5005772;28;46475;-81
2021/09/11 04:47:01;;;;;;;;;3.00;3.00;;;;;;;;5012324;28;45475;-81
2021/09/11 04:49:26;;;;;;;;;4.00;4.00;;;;;;;;5010781;28;45444;-81
2021/09/11 04:51:52;;;;;;;;;4.25;3.00;;;;;;;;5001972;28;45497;-80
2021/09/11 04:54:17;;;;;;;;;3.00;3.00;;;;;;;;4998571;28;46176;-81
2021/09/11 04:56:42;;;;;;;;;4.00;3.00;;;;;;;;5010465;28;45509;-80
2021/09/11 04:59:07;;;;;;;;;4.00;2.50;;;;;;;;5008223;28;45331;-80
2021/09/11 05:01:33;;;;;;;;;6.33;3.00;;;;;;;;5010772;28;45511;-80
2021/09/11 05:03:58;;;;;;;;;3.00;3.00;;;;;;;;5006372;28;45439;-81
2021/09/11 05:06:23;;;;;;;;;2.00;2.00;;;;;;;;5006729;28;45666;-81
2021/09/11 05:08:48;;;;;;;;;4.33;2.00;;;;;;;;5000474;28;45554;-81
2021/09/11 05:11:13;;;;;;;;;4.00;3.00;;;;;;;;5009156;28;45473;-80
2021/09/11 05:13:39;;;;;;;;;4.00;3.33;;;;;;;;4994348;28;45697;-80
2021/09/11 05:16:04;;;;;;;;;3.00;3.00;;;;;;;;5008550;28;45375;-81
2021/09/11 05:18:32;;;;;;;;;2.33;2.33;;;;;;;;5000419;28;45405;-81
2021/09/11 05:21:01;;;;;;;;;3.00;3.00;;;;;;;;5011896;28;45381;-81
2021/09/11 05:23:27;;;;;;;;;4.00;2.25;;;;;;;;5000165;28;46900;-80
2021/09/11 05:25:52;;;;;;;;;4.00;2.33;;;;;;;;5015257;28;45453;-81
2021/09/11 05:28:17;;;;;;;;;2.00;1.33;;;;;;;;5014257;28;45469;-80
2021/09/11 05:30:42;;;;;;;;;3.00;3.00;;;;;;;;5006257;28;45291;-81
2021/09/11 05:33:07;;;;;;;;;4.00;3.00;;;;;;;;5001112;28;47302;-80
2021/09/11 05:35:33;;;;;;;;;4.33;2.33;;;;;;;;5008567;28;45490;-80
2021/09/11 05:37:58;;;;;;;;;3.33;1.00;;;;;;;;5010227;28;45572;-81
2021/09/11 05:40:23;;;;;;;;;2.00;2.00;;;;;;;;5006967;28;45438;-81
2021/09/11 05:42:48;;;;;;;;;4.33;2.00;;;;;;;;5004910;28;46014;-81
2021/09/11 05:45:13;;;;;;;;;2.00;2.00;;;;;;;;5005560;28;45633;-81
2021/09/11 05:47:39;;;;;;;;;2.00;2.00;;;;;;;;5013960;28;45457;-81
2021/09/11 05:50:05;;;;;;;;;2.00;2.00;;;;;;;;5011412;28;45662;-81
2021/09/11 05:52:30;;;;;;;;;6.00;2.25;;;;;;;;5014816;28;45476;-80
2021/09/11 05:54:55;;;;;;;;;2.00;2.00;;;;;;;;5015301;28;45330;-80
2021/09/11 05:57:20;;;;;;;;;2.00;2.00;;;;;;;;5010394;28;45426;-81
2021/09/11 05:59:45;;;;;;;;;2.67;2.67;;;;;;;;5009869;28;45341;-81
2021/09/11 06:02:11;;;;;;;;;2.00;2.00;;;;;;;;5014551;28;45513;-80
2021/09/11 06:04:37;;;;;;;;;3.00;1.25;;;;;;;;5003660;28;45660;-81
2021/09/11 06:07:02;;;;;;;;;3.00;1.50;;;;;;;;5014307;28;45388;-81
2021/09/11 06:09:27;;;;;;;;;1.50;1.50;;;;;;;;5019320;28;45379;-75
2021/09/11 06:11:53;;;;;;;;;6.33;2.00;;;;;;;;5011813;28;47356;-81
2021/09/11 06:14:19;;;;;;;;;1.00;1.00;;;;;;;;5011071;28;45683;-81
2021/09/11 06:16:44;;;;;;;;;2.00;2.00;;;;;;;;5017551;28;45610;-81
2021/09/11 06:19:09;;;;;;;;;2.00;2.00;;;;;;;;5006067;28;45584;-81
2021/09/11 06:21:34;;;;;;;;;1.00;1.00;;;;;;;;5010237;28;46139;-81
2021/09/11 06:23:59;;;;;;;;;3.00;2.00;;;;;;;;5014351;28;45298;-80
2021/09/11 06:26:25;;;;;;;;;1.67;1.67;;;;;;;;5008651;28;46670;-81
2021/09/11 06:28:50;;;;;;;;;1.00;1.00;;;;;;;;5011582;28;45473;-81
2021/09/11 06:31:15;;;;;;;;;1.00;1.00;;;;;;;;5011813;28;45518;-81
2021/09/11 06:33:40;;;;;;;;;2.00;1.00;;;;;;;;4997616;28;45866;-81
2021/09/11 06:36:10;;;;;;;;;2.25;1.75;;;;;;;;5009358;28;45477;-81
2021/09/11 06:38:35;;;;;;;;;2.75;0.75;;;;;;;;5003154;28;45543;-81
2021/09/11 06:41:01;;;;;;;;;2.00;2.00;;;;;;;;5004453;28;45938;-79
2021/09/11 06:43:26;;;;;;;;;2.00;2.00;;;;;;;;5011939;28;45488;-80
2021/09/11 06:45:52;;;;;;;;;2.00;1.25;;;;;;;;5022329;28;45455;-82
2021/09/11 06:48:17;;;;;;;;;3.50;0.50;;;;;;;;5011893;28;45576;-81
2021/09/11 06:50:42;;;;;;;;;10.25;6.00;;;;;;;;5004222;28;46135;-65
2021/09/11 06:53:07;;;;;;;;;1.67;1.00;;;;;;;;5013867;28;45291;-61
2021/09/11 06:55:33;;;;;;;;;1.00;1.00;;;;;;;;5015542;28;45776;-64
2021/09/11 06:57:58;;;;;;;;;2.00;1.00;;;;;;;;5010579;28;45441;-63
2021/09/11 07:00:23;;;;;;;;;2.33;1.00;;;;;;;;5005156;28;45513;-63
2021/09/11 07:02:48;;;;;;;;;4.67;2.00;;;;;;;;5009976;28;45438;-71
2021/09/11 07:05:14;;;;;;;;;1.00;1.00;;;;;;;;5009594;28;45456;-66
2021/09/11 07:07:39;;;;;;;;;2.00;1.00;;;;;;;;5014606;28;45311;-66
2021/09/11 07:10:06;;;;;;;;;1.00;1.00;;;;;;;;5010581;28;45517;-66
2021/09/11 07:12:32;;;;;;;;;0.25;0.00;;;;;;;;5015008;28;45447;-66
2021/09/11 07:15:01;;;;;;;;;1.75;1.25;;;;;;;;5005073;28;45406;-66
2021/09/11 07:17:26;;;;;;;;;2.25;2.00;;;;;;;;5008420;28;45466;-64
2021/09/11 07:19:51;;;;;;;;;1.75;1.75;;;;;;;;5010691;28;45382;-66
2021/09/11 07:22:16;;;;;;;;;1.00;1.00;;;;;;;;5006001;28;45549;-60
2021/09/11 07:24:42;;;;;;;;;2.67;1.67;;;;;;;;5007761;28;46477;-60
2021/09/11 07:27:07;;;;;;;;;3.00;1.75;;;;;;;;5011569;28;45447;-60
2021/09/11 07:29:32;;;;;;;;;1.33;1.00;;;;;;;;5008954;28;46112;-60
2021/09/11 07:31:57;;;;;;;;;3.25;0.00;;;;;;;;5012764;28;45287;-60
2021/09/11 07:34:23;;;;;;;;;0.75;0.75;;;;;;;;5012298;28;45485;-59
2021/09/11 07:36:48;;;;;;;;;4.00;1.00;;;;;;;;5011416;28;45365;-60
2021/09/11 07:39:15;;;;;;;;;1.67;1.67;;;;;;;;5001711;28;46057;-59
2021/09/11 07:41:40;;;;;;;;;0.25;0.25;;;;;;;;5006498;28;45573;-60
2021/09/11 07:44:05;;;;;;;;;1.00;1.00;;;;;;;;5005485;28;45846;-60
2021/09/11 07:46:30;;;;;;;;;2.00;0.33;;;;;;;;5012652;28;45469;-60
2021/09/11 07:48:56;;;;;;;;;1.00;1.00;;;;;;;;5008306;28;45531;-60
2021/09/11 07:51:21;;;;;;;;;0.33;0.33;;;;;;;;5012082;28;45511;-60
2021/09/11 07:53:46;;;;;;;;;0.50;0.50;;;;;;;;5011482;28;45339;-60
2021/09/11 07:56:12;;;;;;;;;1.00;1.00;;;;;;;;5010345;28;45759;-60
2021/09/11 07:58:37;;;;;;;;;1.00;1.00;;;;;;;;5005128;28;46098;-60
2021/09/11 08:01:02;;;;;;;;;2.00;1.00;;;;;;;;5008458;28;45508;-60
2021/09/11 08:03:28;;;;;;;;;2.00;0.00;;;;;;;;5009408;28;45443;-60
2021/09/11 08:05:55;;;;;;;;;0.25;0.25;;;;;;;;5003324;28;45552;-60
2021/09/11 08:08:20;;;;;;;;;5.00;1.00;;;;;;;;4994119;28;46316;-60
2021/09/11 08:10:45;;;;;;;;;1.00;1.00;;;;;;;;5007609;28;45457;-59
2021/09/11 08:13:10;;;;;;;;;0.00;0.00;;;;;;;;5006614;28;45536;-66
2021/09/11 08:15:35;;;;;;;;;0.75;0.75;;;;;;;;5008747;28;45479;-60
2021/09/11 08:18:01;;;;;;;;;1.33;0.00;;;;;;;;5009895;28;48383;-63
2021/09/11 08:20:32;;;;;;;;;2.00;0.75;;;;;;;;5002338;28;45737;-61
2021/09/11 08:22:57;;;;;;;;;0.50;0.50;;;;;;;;5007645;28;45307;-61
2021/09/11 08:25:22;;;;;;;;;0.00;0.00;;;;;;;;5007772;28;45478;-61
2021/09/11 08:27:48;;;;;;;;;1.00;1.00;;;;;;;;5011091;28;46980;-61
2021/09/11 08:30:13;;;;;;;;;3.00;0.00;;;;;;;;5003968;28;45357;-61
2021/09/11 08:32:39;;;;;;;;;0.00;0.00;;;;;;;;5007811;28;45691;-60
2021/09/11 08:35:04;;;;;;;;;15.75;10.00;;;;;;;;4996278;28;45600;-60
2021/09/11 08:37:30;;;;;;;;;0.75;0.75;;;;;;;;5005172;28;46050;-60
2021/09/11 08:39:55;;;;;;;;;4.00;1.00;;;;;;;;4997104;28;45680;-61
2021/09/11 08:42:20;;;;;;;;;0.67;0.67;;;;;;;;5000196;28;45911;-61
2021/09/11 08:44:46;;;;;;;;;4.25;2.00;;;;;;;;5007998;28;45703;-61
2021/09/11 08:47:11;;;;;;;;;3.00;1.25;;;;;;;;5013041;28;45927;-61
2021/09/11 08:49:36;;;;;;;;;2.33;1.00;;;;;;;;4999176;28;45411;-61
2021/09/11 08:52:08;;;;;;;;;3.00;0.00;;;;;;;;4998303;28;45465;-61
2021/09/11 08:54:33;;;;;;;;;3.50;1.00;;;;;;;;5010170;28;45580;-60
2021/09/11 08:57:15;;;;;;;;;1.00;1.00;;;;;;;;5009034;28;46275;-60
2021/09/11 08:59:41;;;;;;;;;1.00;1.00;;;;;;;;5012143;28;45475;-60
2021/09/11 09:02:08;;;;;;;;;1.00;1.00;;;;;;;;5011153;28;45855;-60
2021/09/11 09:04:43;;;;;;;;;1.00;1.00;;;;;;;;5012597;28;45426;-60
2021/09/11 09:07:08;;;;;;;;;1.25;1.00;;;;;;;;5010993;28;46491;-60
2021/09/11 09:09:38;;;;;;;;;1.25;1.25;;;;;;;;5014375;28;45668;-61
2021/09/11 09:12:11;;;;;;;;;2.25;1.25;;;;;;;;5011706;28;45725;-61
2021/09/11 09:14:36;;;;;;;;;1.25;1.00;;;;;;;;5011565;28;45846;-61
2021/09/11 09:17:09;;;;;;;;;1.00;1.00;;;;;;;;5011726;28;45691;-63
2021/09/11 09:19:34;;;;;;;;;0.75;0.50;;;;;;;;5009146;28;45489;-61
2021/09/11 09:22:01;;;;;;;;;0.33;0.33;;;;;;;;5011624;28;45447;-62
2021/09/11 09:24:29;;;;;;;;;1.00;1.00;;;;;;;;5015978;28;45435;-63
2021/09/11 09:26:59;;;;;;;;;1.00;0.25;;;;;;;;5006264;28;48104;-62
2021/09/11 09:29:24;;;;;;;;;1.00;1.00;;;;;;;;5011219;28;45715;-62
2021/09/11 09:31:54;;;;;;;;;1.00;1.00;;;;;;;;5011983;28;45569;-62
2021/09/11 09:34:36;;;;;;;;;3.00;1.00;;;;;;;;5013197;28;45544;-62
2021/09/11 09:37:02;;;;;;;;;1.00;1.00;;;;;;;;5011169;28;45750;-63
2021/09/11 09:39:28;;;;;;;;;1.75;0.00;;;;;;;;5013467;28;45350;-62
2021/09/11 09:41:59;;;;;;;;;1.25;0.00;;;;;;;;5011238;28;45446;-62
2021/09/11 09:44:24;;;;;;;;;0.50;0.50;;;;;;;;5011461;28;45458;-62
2021/09/11 09:46:50;;;;;;;;;1.00;1.00;;;;;;;;5011143;28;46308;-61
2021/09/11 09:49:16;;;;;;;;;1.00;1.00;;;;;;;;5011217;28;47006;-62
2021/09/11 09:51:43;;;;;;;;;1.00;1.00;;;;;;;;5015410;28;45495;-62
2021/09/11 09:54:09;;;;;;;;;1.00;1.00;;;;;;;;5010993;28;45650;-62
2021/09/11 09:56:34;;;;;;;;;2.75;1.00;;;;;;;;5010990;28;45812;-62
2021/09/11 09:58:59;;;;;;;;;2.50;1.00;;;;;;;;5011424;28;45577;-62
2021/09/11 10:01:25;;;;;;;;;2.50;0.00;;;;;;;;5011516;28;45576;-62
2021/09/11 10:03:51;;;;;;;;;1.25;1.00;;;;;;;;5011847;28;45506;-62
2021/09/11 10:06:16;;;;;;;;;1.00;1.00;;;;;;;;5009260;28;47489;-62
2021/09/11 10:08:44;;;;;;;;;3.00;1.00;;;;;;;;5009422;28;45414;-63
2021/09/11 10:11:12;;;;;;;;;3.75;1.00;;;;;;;;5013337;28;45617;-62
2021/09/11 10:13:37;;;;;;;;;0.25;0.25;;;;;;;;5011001;28;45422;-63
2021/09/11 10:16:10;;;;;;;;;1.00;1.00;;;;;;;;5011003;28;46018;-62
2021/09/11 10:18:35;;;;;;;;;1.00;1.00;;;;;;;;5010031;28;45600;-62
2021/09/11 10:21:13;;;;;;;;;1.00;1.00;;;;;;;;5014779;28;45419;-63
2021/09/11 10:23:38;;;;;;;;;0.75;0.50;;;;;;;;5006859;28;45426;-62
2021/09/11 10:26:03;;;;;;;;;1.00;1.00;;;;;;;;5009085;28;46179;-63
2021/09/11 10:28:28;;;;;;;;;1.00;1.00;;;;;;;;5010474;28;45421;-62
2021/09/11 10:31:04;;;;;;;;;2.00;2.00;;;;;;;;5012741;28;45366;-62
2021/09/11 10:33:48;;;;;;;;;2.75;1.00;;;;;;;;5007312;28;45527;-61
2021/09/11 10:36:31;;;;;;;;;1.00;1.00;;;;;;;;4996765;28;46380;-62
2021/09/11 10:39:06;;;;;;;;;0.75;0.75;;;;;;;;4995745;28;45731;-62
2021/09/11 10:41:32;;;;;;;;;1.50;1.00;;;;;;;;5004536;28;45600;-61
2021/09/11 10:44:07;;;;;;;;;1.00;1.00;;;;;;;;5009931;28;45823;-62
2021/09/11 10:46:46;;;;;;;;;1.50;1.00;;;;;;;;5011415;28;46361;-62
2021/09/11 10:49:47;;;;;;;;;2.00;1.00;;;;;;;;5011013;28;45232;-63
2021/09/11 10:52:12;;;;;;;;;2.00;1.00;;;;;;;;4989398;28;45610;-62
2021/09/11 10:54:41;;;;;;;;;1.00;1.00;;;;;;;;4996140;28;45556;-63
2021/09/11 10:57:09;;;;;;;;;1.00;1.00;;;;;;;;4986531;28;46216;-62
2021/09/11 10:59:39;;;;;;;;;1.00;1.00;;;;;;;;4990947;28;45595;-62
2021/09/11 11:02:23;;;;;;;;;1.00;1.00;;;;;;;;4986317;28;45670;-62
2021/09/11 11:04:48;;;;;;;;;5.00;1.00;;;;;;;;4990147;28;45847;-62
2021/09/11 11:07:25;;;;;;;;;1.00;1.00;;;;;;;;4997503;28;45487;-62
2021/09/11 11:09:50;;;;;;;;;1.00;1.00;;;;;;;;4986514;28;45640;-62
2021/09/11 11:12:20;;;;;;;;;0.33;0.33;;;;;;;;4988327;28;45417;-62
2021/09/11 11:14:45;;;;;;;;;1.00;1.00;;;;;;;;4984713;28;45468;-62
2021/09/11 11:17:11;;;;;;;;;2.75;1.00;;;;;;;;4990543;28;46186;-63
2021/09/11 11:19:40;;;;;;;;;1.25;1.25;;;;;;;;4989125;28;45563;-62
2021/09/11 11:22:06;;;;;;;;;1.50;1.50;;;;;;;;4985360;28;45688;-63
2021/09/11 11:24:35;;;;;;;;;1.00;1.00;;;;;;;;4986406;28;45595;-62
2021/09/11 11:27:05;;;;;;;;;2.50;1.00;;;;;;;;5008332;28;46245;-62
2021/09/11 11:29:30;;;;;;;;;2.00;2.00;;;;;;;;5009527;28;45277;-62
2021/09/11 11:31:56;;;;;;;;;3.00;1.00;;;;;;;;5009559;28;45403;-63
2021/09/11 11:34:21;;;;;;;;;1.00;1.00;;;;;;;;5010111;28;45369;-63
2021/09/11 11:36:48;;;;;;;;;2.00;2.00;;;;;;;;5009727;28;45581;-63
2021/09/11 11:39:17;;;;;;;;;3.50;3.00;;;;;;;;5012401;28;46088;-61
2021/09/11 11:41:42;;;;;;;;;3.25;3.25;;;;;;;;5004699;28;45570;-61
2021/09/11 11:44:07;;;;;;;;;21.00;18.67;;;;;;;;5009109;28;45514;-62
2021/09/11 11:46:33;;;;;;;;;2.00;2.00;;;;;;;;5008282;28;45588;-62
2021/09/11 11:48:58;;;;;;;;;4.00;3.00;;;;;;;;5015591;28;45525;-62
2021/09/11 11:51:24;;;;;;;;;8.00;5.75;;;;;;;;5009546;28;45506;-64
2021/09/11 11:53:50;;;;;;;;;4.50;3.00;;;;;;;;5008776;28;45616;-63
2021/09/11 11:56:15;;;;;;;;;4.50;4.50;;;;;;;;5008668;28;46274;-62
2021/09/11 11:58:40;;;;;;;;;8.67;7.00;;;;;;;;5008851;28;45560;-62
2021/09/11 12:01:05;;;;;;;;;5.00;3.75;;;;;;;;5009160;28;45870;-61
2021/09/11 12:03:32;;;;;;;;;3.00;2.00;;;;;;;;5012701;28;45923;-63
2021/09/11 12:05:57;;;;;;;;;2.00;2.00;;;;;;;;5010222;28;47294;-62
2021/09/11 12:08:23;;;;;;;;;2.75;2.75;;;;;;;;5008790;28;45505;-61
2021/09/11 12:10:51;;;;;;;;;3.00;2.50;;;;;;;;5007278;28;45538;-61
2021/09/11 12:13:16;;;;;;;;;3.50;2.25;;;;;;;;5003280;28;45450;-61
2021/09/11 12:15:43;;;;;;;;;2.00;2.00;;;;;;;;5011816;28;46209;-61
2021/09/11 12:18:12;;;;;;;;;2.00;1.00;;;;;;;;5003929;28;45443;-61
2021/09/11 12:20:47;;;;;;;;;2.00;1.00;;;;;;;;5008382;28;45554;-61
2021/09/11 12:23:12;;;;;;;;;5.00;2.00;;;;;;;;5009891;28;45376;-61
2021/09/11 12:25:50;;;;;;;;;1.00;1.00;;;;;;;;5010197;28;47204;-75
2021/09/11 12:28:30;;;;;;;;;1.75;1.75;;;;;;;;5009302;28;45784;-61
2021/09/11 12:30:55;;;;;;;;;3.00;1.00;;;;;;;;5006235;28;45470;-59
2021/09/11 12:33:20;;;;;;;;;1.00;1.00;;;;;;;;5014774;28;45454;-61
2021/09/11 12:35:45;;;;;;;;;2.00;1.00;;;;;;;;5016003;28;46025;-61
2021/09/11 12:38:11;;;;;;;;;1.00;1.00;;;;;;;;5016573;28;48791;-61
2021/09/11 12:40:36;;;;;;;;;5.00;2.00;;;;;;;;5010657;28;45452;-61
2021/09/11 12:43:03;;;;;;;;;3.00;1.00;;;;;;;;5014243;28;45459;-60
2021/09/11 12:45:28;;;;;;;;;1.00;1.00;;;;;;;;5017160;28;46374;-61
2021/09/11 12:47:53;;;;;;;;;2.00;2.00;;;;;;;;4998159;28;45769;-61
2021/09/11 12:50:20;;;;;;;;;1.33;1.33;;;;;;;;5009978;28;45574;-61
2021/09/11 12:52:46;;;;;;;;;1.00;1.00;;;;;;;;5009518;28;45514;-61
2021/09/11 12:55:11;;;;;;;;;1.25;1.25;;;;;;;;5016072;28;47352;-61
2021/09/11 12:57:36;;;;;;;;;1.67;1.67;;;;;;;;5013592;28;45491;-60
2021/09/11 13:00:02;;;;;;;;;1.75;1.75;;;;;;;;5013985;28;45500;-61
2021/09/11 13:02:27;;;;;;;;;2.00;2.00;;;;;;;;5014515;28;45393;-61
2021/09/11 13:04:55;;;;;;;;;1.33;1.33;;;;;;;;5013439;28;45557;-61
2021/09/11 13:07:21;;;;;;;;;2.25;2.00;;;;;;;;5007865;28;45654;-61
2021/09/11 13:09:46;;;;;;;;;2.75;1.50;;;;;;;;5016176;28;45469;-61
2021/09/11 13:12:11;;;;;;;;;1.67;0.33;;;;;;;;5010169;28;45493;-61
2021/09/11 13:14:36;;;;;;;;;1.00;1.00;;;;;;;;5007446;28;46502;-61
2021/09/11 13:17:02;;;;;;;;;2.00;2.00;;;;;;;;5011700;28;45489;-61
2021/09/11 13:19:27;;;;;;;;;1.00;1.00;;;;;;;;5012444;28;45884;-61
2021/09/11 13:21:52;;;;;;;;;1.00;0.67;;;;;;;;5000640;28;45423;-62
2021/09/11 13:24:17;;;;;;;;;1.67;0.67;;;;;;;;5007803;28;46790;-63
2021/09/11 13:26:42;;;;;;;;;0.67;0.67;;;;;;;;5006264;28;45407;-62
2021/09/11 13:29:08;;;;;;;;;0.75;0.75;;;;;;;;5005517;28;45516;-62
2021/09/11 13:31:35;;;;;;;;;1.00;1.00;;;;;;;;5008712;28;45650;-61
2021/09/11 13:34:00;;;;;;;;;1.50;1.50;;;;;;;;5001095;28;47280;-61
2021/09/11 13:36:26;;;;;;;;;0.67;0.00;;;;;;;;5014798;28;45435;-62
2021/09/11 13:38:52;;;;;;;;;2.50;1.75;;;;;;;;5015455;28;45363;-62
2021/09/11 13:41:18;;;;;;;;;2.00;0.00;;;;;;;;5011443;28;45632;-61
2021/09/11 13:43:43;;;;;;;;;0.00;0.00;;;;;;;;5014283;28;47253;-61
2021/09/11 13:46:08;;;;;;;;;3.25;1.75;;;;;;;;5008393;28;45418;-62
2021/09/11 13:48:36;;;;;;;;;0.75;0.75;;;;;;;;5012873;28;45447;-62
2021/09/11 13:51:01;;;;;;;;;1.25;0.75;;;;;;;;5014735;28;45551;-61
2021/09/11 13:53:26;;;;;;;;;0.67;0.67;;;;;;;;5011115;28;45899;-61
2021/09/11 13:55:52;;;;;;;;;0.75;0.75;;;;;;;;5013010;28;45453;-61
2021/09/11 13:58:17;;;;;;;;;0.50;0.50;;;;;;;;5013563;28;45334;-61
2021/09/11 14:00:43;;;;;;;;;3.25;0.75;;;;;;;;5010323;28;45416;-61
2021/09/11 14:03:08;;;;;;;;;1.00;1.00;;;;;;;;5014535;28;45508;-61
2021/09/11 14:05:33;;;;;;;;;0.25;0.25;;;;;;;;5009147;28;45233;-62
2021/09/11 14:07:58;;;;;;;;;3.25;0.75;;;;;;;;5013286;28;45820;-60
2021/09/11 14:10:24;;;;;;;;;0.67;0.67;;;;;;;;5006345;28;45675;-61
2021/09/11 14:12:49;;;;;;;;;2.00;2.00;;;;;;;;5014903;28;46043;-61
2021/09/11 14:15:16;;;;;;;;;1.00;1.00;;;;;;;;5014048;28;47487;-61
2021/09/11 14:17:41;;;;;;;;;1.00;1.00;;;;;;;;5005637;28;45381;-61
2021/09/11 14:20:07;;;;;;;;;2.00;2.00;;;;;;;;5013674;28;45613;-61
2021/09/11 14:22:32;;;;;;;;;1.00;1.00;;;;;;;;5008384;28;46515;-60
2021/09/11 14:24:57;;;;;;;;;1.00;1.00;;;;;;;;5014551;28;45716;-61
2021/09/11 14:27:22;;;;;;;;;2.00;1.00;;;;;;;;5004116;28;45375;-62
2021/09/11 14:29:48;;;;;;;;;1.00;1.00;;;;;;;;5013480;28;45455;-61
2021/09/11 14:32:13;;;;;;;;;2.00;2.00;;;;;;;;5010548;28;46229;-61
2021/09/11 14:34:38;;;;;;;;;1.25;1.25;;;;;;;;5012149;28;46051;-61
2021/09/11 14:37:07;;;;;;;;;0.75;0.75;;;;;;;;5014323;28;45288;-60